Abu Musa, Iran

1:54 AM IRDT on August 24, 2016 (GMT +0430)
Bandar Lengeh | | Change Station

Elev 75 ft 26.53 °N, 54.82 °E | Updated 24 minutes ago

Haze
Haze
93 °F
Feels Like 95 °F
N
5
Wind Variable Wind from NW

Today
High -- | Low -- °F
--% Chance of Precip.
Yesterday
High -- | Low -- °F
Precip. -- in
Pressure 29.53 in
Visibility 3.1 miles
Clouds
Heat Index 95 °F
Dew Point 64 °F
Humidity 38%
Rainfall 0.00 in
Snow Depth Not available.
6:27 AM 7:17 PM
Waning Gibbous, 64% visible
METAR OIBL 232100Z 32004KT 5000 HZ NSC 34/18 Q1000
Pressure 29.53 in
Visibility 3.1 miles
Clouds
Heat Index 95 °F
Dew Point 64 °F
Humidity 38%
Rainfall 0.00 in
Snow Depth Not available.
6:27 AM 7:17 PM
Waning Gibbous, 64% visible
METAR OIBL 232100Z 32004KT 5000 HZ NSC 34/18 Q1000

10-Day Weather Forecast

No radar image for this location.
×

Almanac

Astronomy

Aug. 24, 2016 Rise Set
Actual Time
Civil Twilight
Nautical Twilight
Astronomical Twilight
Moon
Length of Visible Light
Length of Day
Tomorrow will be .
, % of the Moon is Illuminated

Today's Extremes

Country Highs Country Lows

Community

WunderPhotos

Upload Photos

1,934,464 photos uploaded!

WunderBlog® & News

Nearby

Air Quality

  Air Quality AQ Index Pollutant
Not available.

Snow Depth

Station Depth Elevation

Earthquake Activity

City Distance Mag. Time & Date
Minimum magnitude displayed is 2.5.

Coastal Water Temperatures

Place Temperature

Stations

Nearby Weather Stations

Station Location Temp. Windchill Dew Point Humidity Wind Precip. Elev Updated Type